sensor_id;sensor_type;location;lat;lon;timestamp;P1;durP1;ratioP1;P2;durP2;ratioP2
37507;SDS011;23360;46.936;15.514;2024-01-11T00:00:54;57.50;;;22.23;;
37507;SDS011;23360;46.936;15.514;2024-01-11T00:03:39;66.28;;;21.08;;
37507;SDS011;23360;46.936;15.514;2024-01-11T00:06:24;62.70;;;22.23;;
37507;SDS011;23360;46.936;15.514;2024-01-11T00:09:10;63.05;;;23.05;;
37507;SDS011;23360;46.936;15.514;2024-01-11T00:11:55;71.68;;;23.33;;
37507;SDS011;23360;46.936;15.514;2024-01-11T00:14:40;66.80;;;24.38;;
37507;SDS011;23360;46.936;15.514;2024-01-11T00:17:25;71.85;;;21.92;;
37507;SDS011;23360;46.936;15.514;2024-01-11T00:20:10;75.88;;;24.67;;
37507;SDS011;23360;46.936;15.514;2024-01-11T00:22:55;66.90;;;23.08;;
37507;SDS011;23360;46.936;15.514;2024-01-11T00:25:40;56.88;;;21.52;;
37507;SDS011;23360;46.936;15.514;2024-01-11T00:28:26;67.72;;;22.88;;
37507;SDS011;23360;46.936;15.514;2024-01-11T00:31:11;65.20;;;22.55;;
37507;SDS011;23360;46.936;15.514;2024-01-11T00:33:56;71.22;;;24.73;;
37507;SDS011;23360;46.936;15.514;2024-01-11T00:36:41;64.70;;;22.83;;
37507;SDS011;23360;46.936;15.514;2024-01-11T00:39:26;72.80;;;24.83;;
37507;SDS011;23360;46.936;15.514;2024-01-11T00:42:11;69.60;;;24.52;;
37507;SDS011;23360;46.936;15.514;2024-01-11T00:44:56;57.28;;;22.02;;
37507;SDS011;23360;46.936;15.514;2024-01-11T00:47:41;77.25;;;26.85;;
37507;SDS011;23360;46.936;15.514;2024-01-11T00:50:27;86.35;;;25.17;;
37507;SDS011;23360;46.936;15.514;2024-01-11T00:53:12;66.78;;;23.23;;
37507;SDS011;23360;46.936;15.514;2024-01-11T00:56:00;64.65;;;24.15;;
37507;SDS011;23360;46.936;15.514;2024-01-11T00:58:45;70.97;;;24.85;;
37507;SDS011;23360;46.936;15.514;2024-01-11T01:01:31;82.57;;;26.30;;
37507;SDS011;23360;46.936;15.514;2024-01-11T01:04:16;65.30;;;25.17;;
37507;SDS011;23360;46.936;15.514;2024-01-11T01:07:01;74.60;;;26.90;;
37507;SDS011;23360;46.936;15.514;2024-01-11T01:09:46;84.68;;;25.98;;
37507;SDS011;23360;46.936;15.514;2024-01-11T01:12:31;69.53;;;24.80;;
37507;SDS011;23360;46.936;15.514;2024-01-11T01:15:16;76.82;;;26.88;;
37507;SDS011;23360;46.936;15.514;2024-01-11T01:18:01;86.50;;;28.63;;
37507;SDS011;23360;46.936;15.514;2024-01-11T01:20:47;74.13;;;28.38;;
37507;SDS011;23360;46.936;15.514;2024-01-11T01:23:32;83.95;;;26.83;;
37507;SDS011;23360;46.936;15.514;2024-01-11T01:26:18;73.78;;;25.50;;
37507;SDS011;23360;46.936;15.514;2024-01-11T01:29:03;68.32;;;24.83;;
37507;SDS011;23360;46.936;15.514;2024-01-11T01:31:48;68.20;;;23.73;;
37507;SDS011;23360;46.936;15.514;2024-01-11T01:34:33;74.40;;;24.10;;
37507;SDS011;23360;46.936;15.514;2024-01-11T01:37:18;72.30;;;23.88;;
37507;SDS011;23360;46.936;15.514;2024-01-11T01:40:04;71.35;;;23.20;;
37507;SDS011;23360;46.936;15.514;2024-01-11T01:42:50;59.03;;;24.10;;
37507;SDS011;23360;46.936;15.514;2024-01-11T01:45:35;69.38;;;22.92;;
37507;SDS011;23360;46.936;15.514;2024-01-11T01:48:20;65.32;;;24.77;;
37507;SDS011;23360;46.936;15.514;2024-01-11T01:51:06;73.35;;;23.95;;
37507;SDS011;23360;46.936;15.514;2024-01-11T01:53:51;67.80;;;24.35;;
37507;SDS011;23360;46.936;15.514;2024-01-11T01:56:37;61.55;;;22.83;;
37507;SDS011;23360;46.936;15.514;2024-01-11T01:59:22;58.33;;;18.95;;
37507;SDS011;23360;46.936;15.514;2024-01-11T02:02:09;58.95;;;22.70;;
37507;SDS011;23360;46.936;15.514;2024-01-11T02:04:54;65.68;;;21.63;;
37507;SDS011;23360;46.936;15.514;2024-01-11T02:07:40;63.75;;;21.35;;
37507;SDS011;23360;46.936;15.514;2024-01-11T02:10:25;65.10;;;21.30;;
37507;SDS011;23360;46.936;15.514;2024-01-11T02:13:11;67.85;;;24.92;;
37507;SDS011;23360;46.936;15.514;2024-01-11T02:15:56;56.00;;;22.60;;
37507;SDS011;23360;46.936;15.514;2024-01-11T02:18:41;63.67;;;20.95;;
37507;SDS011;23360;46.936;15.514;2024-01-11T02:21:27;63.42;;;20.08;;
37507;SDS011;23360;46.936;15.514;2024-01-11T02:24:12;74.70;;;23.90;;
37507;SDS011;23360;46.936;15.514;2024-01-11T02:26:58;62.67;;;23.42;;
37507;SDS011;23360;46.936;15.514;2024-01-11T02:29:46;53.80;;;20.48;;
37507;SDS011;23360;46.936;15.514;2024-01-11T02:32:31;59.67;;;21.73;;
37507;SDS011;23360;46.936;15.514;2024-01-11T02:35:17;64.03;;;21.65;;
37507;SDS011;23360;46.936;15.514;2024-01-11T02:38:03;53.90;;;21.30;;
37507;SDS011;23360;46.936;15.514;2024-01-11T02:40:48;69.65;;;23.42;;
37507;SDS011;23360;46.936;15.514;2024-01-11T02:43:34;67.38;;;23.13;;
37507;SDS011;23360;46.936;15.514;2024-01-11T02:46:24;61.83;;;23.77;;
37507;SDS011;23360;46.936;15.514;2024-01-11T02:49:09;57.30;;;20.80;;
37507;SDS011;23360;46.936;15.514;2024-01-11T02:51:55;69.18;;;22.55;;
37507;SDS011;23360;46.936;15.514;2024-01-11T02:54:40;71.68;;;23.52;;
37507;SDS011;23360;46.936;15.514;2024-01-11T02:57:25;65.50;;;22.08;;
37507;SDS011;23360;46.936;15.514;2024-01-11T03:00:10;77.38;;;24.15;;
37507;SDS011;23360;46.936;15.514;2024-01-11T03:02:55;55.38;;;21.02;;
37507;SDS011;23360;46.936;15.514;2024-01-11T03:05:40;73.18;;;25.48;;
37507;SDS011;23360;46.936;15.514;2024-01-11T03:08:26;79.45;;;24.88;;
37507;SDS011;23360;46.936;15.514;2024-01-11T03:11:11;75.85;;;25.23;;
37507;SDS011;23360;46.936;15.514;2024-01-11T03:13:56;66.15;;;22.85;;
37507;SDS011;23360;46.936;15.514;2024-01-11T03:16:42;61.15;;;22.70;;
37507;SDS011;23360;46.936;15.514;2024-01-11T03:19:27;66.13;;;23.42;;
37507;SDS011;23360;46.936;15.514;2024-01-11T03:22:13;61.45;;;22.77;;
37507;SDS011;23360;46.936;15.514;2024-01-11T03:24:58;71.80;;;24.75;;
37507;SDS011;23360;46.936;15.514;2024-01-11T03:27:43;62.40;;;22.65;;
37507;SDS011;23360;46.936;15.514;2024-01-11T03:30:29;74.80;;;23.40;;
37507;SDS011;23360;46.936;15.514;2024-01-11T03:33:15;60.92;;;23.83;;
37507;SDS011;23360;46.936;15.514;2024-01-11T03:36:06;75.30;;;23.58;;
37507;SDS011;23360;46.936;15.514;2024-01-11T03:38:51;68.50;;;22.45;;
37507;SDS011;23360;46.936;15.514;2024-01-11T03:41:36;67.53;;;24.33;;
37507;SDS011;23360;46.936;15.514;2024-01-11T03:44:22;62.17;;;23.40;;
37507;SDS011;23360;46.936;15.514;2024-01-11T03:47:07;65.78;;;24.73;;
37507;SDS011;23360;46.936;15.514;2024-01-11T03:49:52;61.45;;;22.42;;
37507;SDS011;23360;46.936;15.514;2024-01-11T03:52:37;58.20;;;21.67;;
37507;SDS011;23360;46.936;15.514;2024-01-11T03:55:22;75.10;;;24.13;;
37507;SDS011;23360;46.936;15.514;2024-01-11T03:58:07;67.85;;;22.92;;
37507;SDS011;23360;46.936;15.514;2024-01-11T04:00:52;60.42;;;21.23;;
37507;SDS011;23360;46.936;15.514;2024-01-11T04:03:37;65.95;;;22.60;;
37507;SDS011;23360;46.936;15.514;2024-01-11T04:06:22;66.93;;;24.83;;
37507;SDS011;23360;46.936;15.514;2024-01-11T04:09:08;57.15;;;20.73;;
37507;SDS011;23360;46.936;15.514;2024-01-11T04:11:53;84.03;;;25.08;;
37507;SDS011;23360;46.936;15.514;2024-01-11T04:14:39;64.13;;;23.75;;
37507;SDS011;23360;46.936;15.514;2024-01-11T04:17:26;71.07;;;22.55;;
37507;SDS011;23360;46.936;15.514;2024-01-11T04:20:13;64.45;;;20.70;;
37507;SDS011;23360;46.936;15.514;2024-01-11T04:22:58;69.13;;;22.15;;
37507;SDS011;23360;46.936;15.514;2024-01-11T04:25:43;57.83;;;20.50;;
37507;SDS011;23360;46.936;15.514;2024-01-11T04:28:28;55.92;;;19.90;;
37507;SDS011;23360;46.936;15.514;2024-01-11T04:31:14;75.68;;;21.17;;
37507;SDS011;23360;46.936;15.514;2024-01-11T04:33:59;68.45;;;21.15;;
37507;SDS011;23360;46.936;15.514;2024-01-11T04:36:45;62.45;;;21.83;;
37507;SDS011;23360;46.936;15.514;2024-01-11T04:39:30;62.15;;;21.67;;
37507;SDS011;23360;46.936;15.514;2024-01-11T04:42:16;66.22;;;20.67;;
37507;SDS011;23360;46.936;15.514;2024-01-11T04:45:01;82.38;;;22.48;;
37507;SDS011;23360;46.936;15.514;2024-01-11T04:47:47;65.20;;;22.27;;
37507;SDS011;23360;46.936;15.514;2024-01-11T04:50:32;55.42;;;20.58;;
37507;SDS011;23360;46.936;15.514;2024-01-11T04:53:17;60.10;;;19.95;;
37507;SDS011;23360;46.936;15.514;2024-01-11T04:56:02;63.42;;;22.02;;
37507;SDS011;23360;46.936;15.514;2024-01-11T04:58:48;69.22;;;20.60;;
37507;SDS011;23360;46.936;15.514;2024-01-11T05:01:33;60.40;;;20.83;;
37507;SDS011;23360;46.936;15.514;2024-01-11T05:04:18;50.47;;;21.27;;
37507;SDS011;23360;46.936;15.514;2024-01-11T05:07:03;62.95;;;20.05;;
37507;SDS011;23360;46.936;15.514;2024-01-11T05:09:49;60.13;;;20.50;;
37507;SDS011;23360;46.936;15.514;2024-01-11T05:12:33;50.67;;;19.75;;
37507;SDS011;23360;46.936;15.514;2024-01-11T05:15:19;69.78;;;24.00;;
37507;SDS011;23360;46.936;15.514;2024-01-11T05:18:04;71.68;;;24.23;;
37507;SDS011;23360;46.936;15.514;2024-01-11T05:20:49;77.28;;;23.48;;
37507;SDS011;23360;46.936;15.514;2024-01-11T05:23:34;74.60;;;22.23;;
37507;SDS011;23360;46.936;15.514;2024-01-11T05:26:20;62.70;;;19.80;;
37507;SDS011;23360;46.936;15.514;2024-01-11T05:29:06;62.53;;;20.90;;
37507;SDS011;23360;46.936;15.514;2024-01-11T05:31:50;56.70;;;21.42;;
37507;SDS011;23360;46.936;15.514;2024-01-11T05:34:36;60.70;;;22.80;;
37507;SDS011;23360;46.936;15.514;2024-01-11T05:37:21;60.65;;;21.58;;
37507;SDS011;23360;46.936;15.514;2024-01-11T05:40:07;55.03;;;19.52;;
37507;SDS011;23360;46.936;15.514;2024-01-11T05:42:53;56.70;;;21.55;;
37507;SDS011;23360;46.936;15.514;2024-01-11T05:45:38;53.60;;;18.10;;
37507;SDS011;23360;46.936;15.514;2024-01-11T05:48:31;60.15;;;19.75;;
37507;SDS011;23360;46.936;15.514;2024-01-11T05:51:17;53.45;;;18.33;;
37507;SDS011;23360;46.936;15.514;2024-01-11T05:54:03;57.97;;;20.15;;
37507;SDS011;23360;46.936;15.514;2024-01-11T05:56:48;73.03;;;19.92;;
37507;SDS011;23360;46.936;15.514;2024-01-11T05:59:33;60.22;;;19.85;;
37507;SDS011;23360;46.936;15.514;2024-01-11T06:02:18;65.95;;;18.25;;
37507;SDS011;23360;46.936;15.514;2024-01-11T06:05:07;57.55;;;20.33;;
37507;SDS011;23360;46.936;15.514;2024-01-11T06:07:53;57.67;;;18.92;;
37507;SDS011;23360;46.936;15.514;2024-01-11T06:10:38;58.35;;;21.90;;
37507;SDS011;23360;46.936;15.514;2024-01-11T06:13:24;61.10;;;18.90;;
37507;SDS011;23360;46.936;15.514;2024-01-11T06:16:09;53.22;;;19.45;;
37507;SDS011;23360;46.936;15.514;2024-01-11T06:18:57;64.25;;;20.73;;
37507;SDS011;23360;46.936;15.514;2024-01-11T06:21:42;51.38;;;19.23;;
37507;SDS011;23360;46.936;15.514;2024-01-11T06:24:28;61.20;;;22.02;;
37507;SDS011;23360;46.936;15.514;2024-01-11T06:27:13;56.67;;;21.83;;
37507;SDS011;23360;46.936;15.514;2024-01-11T06:29:58;54.28;;;20.27;;
37507;SDS011;23360;46.936;15.514;2024-01-11T06:32:44;65.20;;;21.88;;
37507;SDS011;23360;46.936;15.514;2024-01-11T06:35:29;64.60;;;23.92;;
37507;SDS011;23360;46.936;15.514;2024-01-11T06:38:15;52.20;;;23.00;;
37507;SDS011;23360;46.936;15.514;2024-01-11T06:41:01;79.25;;;22.98;;
37507;SDS011;23360;46.936;15.514;2024-01-11T06:43:46;68.65;;;25.40;;
37507;SDS011;23360;46.936;15.514;2024-01-11T06:46:31;72.32;;;23.20;;
37507;SDS011;23360;46.936;15.514;2024-01-11T06:49:17;72.50;;;20.20;;
37507;SDS011;23360;46.936;15.514;2024-01-11T06:52:02;68.38;;;21.15;;
37507;SDS011;23360;46.936;15.514;2024-01-11T06:54:47;68.95;;;23.77;;
37507;SDS011;23360;46.936;15.514;2024-01-11T06:57:32;66.97;;;25.73;;
37507;SDS011;23360;46.936;15.514;2024-01-11T07:00:17;90.28;;;25.60;;
37507;SDS011;23360;46.936;15.514;2024-01-11T07:03:03;51.13;;;20.33;;
37507;SDS011;23360;46.936;15.514;2024-01-11T07:05:48;57.13;;;21.92;;
37507;SDS011;23360;46.936;15.514;2024-01-11T07:08:34;69.80;;;22.15;;
37507;SDS011;23360;46.936;15.514;2024-01-11T07:11:19;64.45;;;22.40;;
37507;SDS011;23360;46.936;15.514;2024-01-11T07:14:04;73.53;;;23.60;;
37507;SDS011;23360;46.936;15.514;2024-01-11T07:16:49;67.63;;;21.23;;
37507;SDS011;23360;46.936;15.514;2024-01-11T07:19:34;74.55;;;24.55;;
37507;SDS011;23360;46.936;15.514;2024-01-11T07:22:19;58.05;;;20.75;;
37507;SDS011;23360;46.936;15.514;2024-01-11T07:25:04;65.22;;;22.45;;
37507;SDS011;23360;46.936;15.514;2024-01-11T07:27:51;78.22;;;24.17;;
37507;SDS011;23360;46.936;15.514;2024-01-11T07:30:36;63.50;;;23.55;;
37507;SDS011;23360;46.936;15.514;2024-01-11T07:33:21;69.50;;;23.67;;
37507;SDS011;23360;46.936;15.514;2024-01-11T07:36:07;65.03;;;24.52;;
37507;SDS011;23360;46.936;15.514;2024-01-11T07:38:52;65.85;;;25.67;;
37507;SDS011;23360;46.936;15.514;2024-01-11T07:41:38;75.82;;;25.00;;
37507;SDS011;23360;46.936;15.514;2024-01-11T07:44:23;80.88;;;25.77;;
37507;SDS011;23360;46.936;15.514;2024-01-11T07:47:08;79.65;;;26.80;;
37507;SDS011;23360;46.936;15.514;2024-01-11T07:49:53;82.20;;;28.17;;
37507;SDS011;23360;46.936;15.514;2024-01-11T07:52:38;85.18;;;29.98;;
37507;SDS011;23360;46.936;15.514;2024-01-11T07:55:26;69.28;;;24.67;;
37507;SDS011;23360;46.936;15.514;2024-01-11T07:58:11;62.92;;;25.55;;
37507;SDS011;23360;46.936;15.514;2024-01-11T08:00:57;59.03;;;22.75;;
37507;SDS011;23360;46.936;15.514;2024-01-11T08:03:42;53.65;;;21.00;;
37507;SDS011;23360;46.936;15.514;2024-01-11T08:06:30;51.35;;;20.13;;
37507;SDS011;23360;46.936;15.514;2024-01-11T08:09:15;55.92;;;20.58;;
37507;SDS011;23360;46.936;15.514;2024-01-11T08:12:00;59.53;;;20.92;;
37507;SDS011;23360;46.936;15.514;2024-01-11T08:14:45;68.82;;;25.92;;
37507;SDS011;23360;46.936;15.514;2024-01-11T08:17:31;72.18;;;25.60;;
37507;SDS011;23360;46.936;15.514;2024-01-11T08:20:16;76.80;;;25.95;;
37507;SDS011;23360;46.936;15.514;2024-01-11T08:23:02;74.35;;;24.45;;
37507;SDS011;23360;46.936;15.514;2024-01-11T08:25:48;89.20;;;25.25;;
37507;SDS011;23360;46.936;15.514;2024-01-11T08:28:33;68.93;;;24.15;;
37507;SDS011;23360;46.936;15.514;2024-01-11T08:31:19;65.63;;;24.05;;
37507;SDS011;23360;46.936;15.514;2024-01-11T08:34:05;54.53;;;20.10;;
37507;SDS011;23360;46.936;15.514;2024-01-11T08:36:51;69.10;;;26.08;;
37507;SDS011;23360;46.936;15.514;2024-01-11T08:39:36;56.38;;;22.88;;
37507;SDS011;23360;46.936;15.514;2024-01-11T08:42:23;40.45;;;15.63;;
37507;SDS011;23360;46.936;15.514;2024-01-11T08:45:08;38.38;;;15.65;;
37507;SDS011;23360;46.936;15.514;2024-01-11T08:47:54;40.42;;;15.27;;
37507;SDS011;23360;46.936;15.514;2024-01-11T08:50:41;49.03;;;16.13;;
37507;SDS011;23360;46.936;15.514;2024-01-11T08:53:26;44.08;;;15.02;;
37507;SDS011;23360;46.936;15.514;2024-01-11T08:56:11;44.88;;;17.15;;
37507;SDS011;23360;46.936;15.514;2024-01-11T08:58:57;39.35;;;15.00;;
37507;SDS011;23360;46.936;15.514;2024-01-11T09:01:44;46.17;;;16.75;;
37507;SDS011;23360;46.936;15.514;2024-01-11T09:04:41;52.33;;;17.77;;
37507;SDS011;23360;46.936;15.514;2024-01-11T09:07:26;41.40;;;16.88;;
37507;SDS011;23360;46.936;15.514;2024-01-11T09:10:11;56.30;;;16.65;;
37507;SDS011;23360;46.936;15.514;2024-01-11T09:12:57;42.97;;;14.38;;
37507;SDS011;23360;46.936;15.514;2024-01-11T09:15:42;43.83;;;16.88;;
37507;SDS011;23360;46.936;15.514;2024-01-11T09:18:27;52.92;;;17.40;;
37507;SDS011;23360;46.936;15.514;2024-01-11T09:21:12;53.38;;;17.90;;
37507;SDS011;23360;46.936;15.514;2024-01-11T09:23:57;42.60;;;16.52;;
37507;SDS011;23360;46.936;15.514;2024-01-11T09:26:43;39.08;;;15.80;;
37507;SDS011;23360;46.936;15.514;2024-01-11T09:29:28;44.40;;;15.13;;
37507;SDS011;23360;46.936;15.514;2024-01-11T09:32:13;46.50;;;15.55;;
37507;SDS011;23360;46.936;15.514;2024-01-11T09:34:59;54.97;;;18.10;;
37507;SDS011;23360;46.936;15.514;2024-01-11T09:37:44;37.08;;;16.05;;
37507;SDS011;23360;46.936;15.514;2024-01-11T09:40:31;43.40;;;15.75;;
37507;SDS011;23360;46.936;15.514;2024-01-11T09:43:16;45.00;;;16.33;;
37507;SDS011;23360;46.936;15.514;2024-01-11T09:46:05;34.20;;;13.95;;
37507;SDS011;23360;46.936;15.514;2024-01-11T09:48:50;38.42;;;14.65;;
37507;SDS011;23360;46.936;15.514;2024-01-11T09:51:37;42.10;;;15.38;;
37507;SDS011;23360;46.936;15.514;2024-01-11T09:54:23;32.92;;;12.82;;
37507;SDS011;23360;46.936;15.514;2024-01-11T09:57:09;35.28;;;12.82;;
37507;SDS011;23360;46.936;15.514;2024-01-11T09:59:55;36.63;;;12.57;;
37507;SDS011;23360;46.936;15.514;2024-01-11T10:02:41;50.05;;;14.52;;
37507;SDS011;23360;46.936;15.514;2024-01-11T10:05:26;46.17;;;14.65;;
37507;SDS011;23360;46.936;15.514;2024-01-11T10:08:12;38.63;;;16.48;;
37507;SDS011;23360;46.936;15.514;2024-01-11T10:10:57;34.47;;;13.18;;
37507;SDS011;23360;46.936;15.514;2024-01-11T10:13:42;27.30;;;12.23;;
37507;SDS011;23360;46.936;15.514;2024-01-11T10:16:27;32.85;;;13.82;;
37507;SDS011;23360;46.936;15.514;2024-01-11T10:19:12;34.53;;;13.45;;
37507;SDS011;23360;46.936;15.514;2024-01-11T10:22:00;37.97;;;14.45;;
37507;SDS011;23360;46.936;15.514;2024-01-11T10:24:45;32.47;;;13.63;;
37507;SDS011;23360;46.936;15.514;2024-01-11T10:27:30;34.75;;;14.05;;
37507;SDS011;23360;46.936;15.514;2024-01-11T10:30:16;30.23;;;13.18;;
37507;SDS011;23360;46.936;15.514;2024-01-11T10:33:02;34.58;;;14.27;;
37507;SDS011;23360;46.936;15.514;2024-01-11T10:35:48;28.75;;;10.95;;
37507;SDS011;23360;46.936;15.514;2024-01-11T10:38:35;39.28;;;13.93;;
37507;SDS011;23360;46.936;15.514;2024-01-11T10:41:20;37.28;;;13.70;;
37507;SDS011;23360;46.936;15.514;2024-01-11T10:44:06;39.75;;;14.93;;
37507;SDS011;23360;46.936;15.514;2024-01-11T10:46:55;40.95;;;15.02;;
37507;SDS011;23360;46.936;15.514;2024-01-11T10:49:40;40.10;;;15.43;;
37507;SDS011;23360;46.936;15.514;2024-01-11T10:52:28;39.15;;;16.75;;
37507;SDS011;23360;46.936;15.514;2024-01-11T10:55:18;35.33;;;14.82;;
37507;SDS011;23360;46.936;15.514;2024-01-11T10:58:03;35.63;;;14.13;;
37507;SDS011;23360;46.936;15.514;2024-01-11T11:00:50;40.30;;;15.73;;
37507;SDS011;23360;46.936;15.514;2024-01-11T11:03:37;53.55;;;15.18;;
37507;SDS011;23360;46.936;15.514;2024-01-11T11:06:26;45.30;;;14.35;;
37507;SDS011;23360;46.936;15.514;2024-01-11T11:09:13;38.83;;;13.57;;
37507;SDS011;23360;46.936;15.514;2024-01-11T11:11:58;39.58;;;15.20;;
37507;SDS011;23360;46.936;15.514;2024-01-11T11:14:44;37.20;;;15.02;;
37507;SDS011;23360;46.936;15.514;2024-01-11T11:17:30;39.13;;;14.63;;
37507;SDS011;23360;46.936;15.514;2024-01-11T11:20:14;38.08;;;14.90;;
37507;SDS011;23360;46.936;15.514;2024-01-11T11:25:54;40.45;;;15.35;;
37507;SDS011;23360;46.936;15.514;2024-01-11T11:28:40;35.30;;;14.05;;
37507;SDS011;23360;46.936;15.514;2024-01-11T11:31:41;45.20;;;13.60;;
37507;SDS011;23360;46.936;15.514;2024-01-11T11:34:42;31.88;;;12.43;;
37507;SDS011;23360;46.936;15.514;2024-01-11T11:40:16;39.65;;;14.15;;
37507;SDS011;23360;46.936;15.514;2024-01-11T11:43:04;36.53;;;12.45;;
37507;SDS011;23360;46.936;15.514;2024-01-11T11:45:50;30.23;;;12.48;;
37507;SDS011;23360;46.936;15.514;2024-01-11T11:51:34;31.73;;;11.25;;
37507;SDS011;23360;46.936;15.514;2024-01-11T11:54:19;30.85;;;10.93;;
37507;SDS011;23360;46.936;15.514;2024-01-11T11:57:05;22.05;;;10.23;;
37507;SDS011;23360;46.936;15.514;2024-01-11T11:59:51;19.88;;;8.27;;
37507;SDS011;23360;46.936;15.514;2024-01-11T12:02:37;30.23;;;11.48;;
37507;SDS011;23360;46.936;15.514;2024-01-11T12:05:22;21.73;;;9.60;;
37507;SDS011;23360;46.936;15.514;2024-01-11T12:08:07;19.08;;;9.25;;
37507;SDS011;23360;46.936;15.514;2024-01-11T12:10:52;27.65;;;11.27;;
37507;SDS011;23360;46.936;15.514;2024-01-11T12:13:37;36.42;;;10.43;;
37507;SDS011;23360;46.936;15.514;2024-01-11T12:16:23;25.15;;;10.38;;
37507;SDS011;23360;46.936;15.514;2024-01-11T12:19:08;30.25;;;10.77;;
37507;SDS011;23360;46.936;15.514;2024-01-11T12:21:54;21.20;;;10.60;;
37507;SDS011;23360;46.936;15.514;2024-01-11T12:24:40;28.42;;;10.38;;
37507;SDS011;23360;46.936;15.514;2024-01-11T12:27:26;26.42;;;11.80;;
37507;SDS011;23360;46.936;15.514;2024-01-11T12:30:11;31.25;;;11.32;;
37507;SDS011;23360;46.936;15.514;2024-01-11T12:33:00;33.45;;;10.68;;
37507;SDS011;23360;46.936;15.514;2024-01-11T12:35:49;31.98;;;10.48;;
37507;SDS011;23360;46.936;15.514;2024-01-11T12:38:34;23.17;;;10.52;;
37507;SDS011;23360;46.936;15.514;2024-01-11T12:41:21;31.13;;;10.85;;
37507;SDS011;23360;46.936;15.514;2024-01-11T12:44:07;25.85;;;9.43;;
37507;SDS011;23360;46.936;15.514;2024-01-11T12:46:52;17.92;;;8.82;;
37507;SDS011;23360;46.936;15.514;2024-01-11T12:49:37;32.63;;;10.75;;
37507;SDS011;23360;46.936;15.514;2024-01-11T12:52:27;25.23;;;11.25;;
37507;SDS011;23360;46.936;15.514;2024-01-11T12:55:18;21.48;;;9.52;;
37507;SDS011;23360;46.936;15.514;2024-01-11T12:58:07;23.38;;;9.65;;
37507;SDS011;23360;46.936;15.514;2024-01-11T13:00:54;28.05;;;10.52;;
37507;SDS011;23360;46.936;15.514;2024-01-11T13:03:43;36.30;;;10.50;;
37507;SDS011;23360;46.936;15.514;2024-01-11T13:06:30;21.25;;;10.20;;
37507;SDS011;23360;46.936;15.514;2024-01-11T13:09:16;30.40;;;10.65;;
37507;SDS011;23360;46.936;15.514;2024-01-11T13:12:02;24.92;;;11.23;;
37507;SDS011;23360;46.936;15.514;2024-01-11T13:14:48;25.33;;;9.90;;
37507;SDS011;23360;46.936;15.514;2024-01-11T13:17:34;28.80;;;10.90;;
37507;SDS011;23360;46.936;15.514;2024-01-11T13:20:19;32.58;;;11.93;;
37507;SDS011;23360;46.936;15.514;2024-01-11T13:25:58;32.40;;;10.60;;
37507;SDS011;23360;46.936;15.514;2024-01-11T13:28:44;25.65;;;10.85;;
37507;SDS011;23360;46.936;15.514;2024-01-11T13:31:28;31.88;;;10.23;;
37507;SDS011;23360;46.936;15.514;2024-01-11T13:34:13;24.00;;;10.05;;
37507;SDS011;23360;46.936;15.514;2024-01-11T13:36:58;24.98;;;9.70;;
37507;SDS011;23360;46.936;15.514;2024-01-11T13:39:44;23.15;;;9.80;;
37507;SDS011;23360;46.936;15.514;2024-01-11T13:42:29;24.02;;;7.75;;
37507;SDS011;23360;46.936;15.514;2024-01-11T13:45:14;63.20;;;11.00;;
37507;SDS011;23360;46.936;15.514;2024-01-11T13:47:59;24.67;;;10.27;;
37507;SDS011;23360;46.936;15.514;2024-01-11T13:50:45;30.45;;;10.07;;
37507;SDS011;23360;46.936;15.514;2024-01-11T13:53:31;25.60;;;10.65;;
37507;SDS011;23360;46.936;15.514;2024-01-11T13:56:16;32.22;;;10.70;;
37507;SDS011;23360;46.936;15.514;2024-01-11T13:59:01;25.85;;;9.98;;
37507;SDS011;23360;46.936;15.514;2024-01-11T14:01:46;27.13;;;10.55;;
37507;SDS011;23360;46.936;15.514;2024-01-11T14:04:32;29.80;;;11.52;;
37507;SDS011;23360;46.936;15.514;2024-01-11T14:07:17;26.50;;;11.85;;
37507;SDS011;23360;46.936;15.514;2024-01-11T14:10:03;21.92;;;9.50;;
37507;SDS011;23360;46.936;15.514;2024-01-11T14:12:48;28.92;;;10.65;;
37507;SDS011;23360;46.936;15.514;2024-01-11T14:15:34;32.38;;;11.02;;
37507;SDS011;23360;46.936;15.514;2024-01-11T14:18:21;36.58;;;10.98;;
37507;SDS011;23360;46.936;15.514;2024-01-11T14:21:07;27.27;;;12.20;;
37507;SDS011;23360;46.936;15.514;2024-01-11T14:23:56;26.65;;;11.43;;
37507;SDS011;23360;46.936;15.514;2024-01-11T14:26:41;29.73;;;12.00;;
37507;SDS011;23360;46.936;15.514;2024-01-11T14:29:28;35.72;;;13.48;;
37507;SDS011;23360;46.936;15.514;2024-01-11T14:32:14;29.63;;;11.30;;
37507;SDS011;23360;46.936;15.514;2024-01-11T14:35:17;21.60;;;10.68;;
37507;SDS011;23360;46.936;15.514;2024-01-11T14:38:03;25.33;;;12.00;;
37507;SDS011;23360;46.936;15.514;2024-01-11T14:40:49;31.13;;;12.02;;
37507;SDS011;23360;46.936;15.514;2024-01-11T14:43:35;23.70;;;11.30;;
37507;SDS011;23360;46.936;15.514;2024-01-11T14:46:20;27.90;;;10.98;;
37507;SDS011;23360;46.936;15.514;2024-01-11T14:49:05;27.17;;;11.45;;
37507;SDS011;23360;46.936;15.514;2024-01-11T14:51:53;32.28;;;11.40;;
37507;SDS011;23360;46.936;15.514;2024-01-11T14:54:39;31.20;;;11.77;;
37507;SDS011;23360;46.936;15.514;2024-01-11T14:57:24;34.80;;;12.43;;
37507;SDS011;23360;46.936;15.514;2024-01-11T15:00:09;29.92;;;12.18;;
37507;SDS011;23360;46.936;15.514;2024-01-11T15:02:55;34.75;;;12.88;;
37507;SDS011;23360;46.936;15.514;2024-01-11T15:05:41;25.90;;;11.13;;
37507;SDS011;23360;46.936;15.514;2024-01-11T15:08:26;34.03;;;12.20;;
37507;SDS011;23360;46.936;15.514;2024-01-11T15:11:11;34.45;;;12.80;;
37507;SDS011;23360;46.936;15.514;2024-01-11T15:13:57;25.80;;;10.88;;
37507;SDS011;23360;46.936;15.514;2024-01-11T15:16:43;32.13;;;12.55;;
37507;SDS011;23360;46.936;15.514;2024-01-11T15:19:33;28.45;;;11.60;;
37507;SDS011;23360;46.936;15.514;2024-01-11T15:22:18;26.98;;;11.35;;
37507;SDS011;23360;46.936;15.514;2024-01-11T15:25:06;28.00;;;13.02;;
37507;SDS011;23360;46.936;15.514;2024-01-11T15:27:53;29.45;;;11.35;;
37507;SDS011;23360;46.936;15.514;2024-01-11T15:30:38;27.40;;;12.68;;
37507;SDS011;23360;46.936;15.514;2024-01-11T15:33:24;31.52;;;13.23;;
37507;SDS011;23360;46.936;15.514;2024-01-11T15:36:10;35.22;;;12.77;;
37507;SDS011;23360;46.936;15.514;2024-01-11T15:38:55;29.15;;;10.93;;
37507;SDS011;23360;46.936;15.514;2024-01-11T15:41:56;29.40;;;12.30;;
37507;SDS011;23360;46.936;15.514;2024-01-11T15:44:43;31.95;;;13.65;;
37507;SDS011;23360;46.936;15.514;2024-01-11T15:47:29;25.92;;;11.43;;
37507;SDS011;23360;46.936;15.514;2024-01-11T15:50:15;33.33;;;12.10;;
37507;SDS011;23360;46.936;15.514;2024-01-11T15:53:01;28.65;;;11.35;;
37507;SDS011;23360;46.936;15.514;2024-01-11T15:55:47;35.80;;;11.73;;
37507;SDS011;23360;46.936;15.514;2024-01-11T15:58:33;32.45;;;11.38;;
37507;SDS011;23360;46.936;15.514;2024-01-11T16:01:19;31.08;;;12.18;;
37507;SDS011;23360;46.936;15.514;2024-01-11T16:04:07;32.70;;;12.45;;
37507;SDS011;23360;46.936;15.514;2024-01-11T16:06:52;28.33;;;10.65;;